Lake City, Texas
Current Conditions -  °F | °C
As of 12:15 PM on Friday 28 Nov 2014 (Local Time) from KRBO Reporting Station
Clear Clear  
Wind Chill: 74°   Ceiling: Unl
Heat Index: 74°   Visibility: 10mi
Dew Point: 53°   Wind: 10mph
Humidity: 49%   Direction: 180°S
Pressure: 30.26"   Gusts: 18mph
Location:  28.0654°N, 97.7489°W
Report Text: KRBO 281815Z AUTO 18009G16KT 10SM CLR 23/12 A3026 RMK AO2 T02310119
Loading
Personal Weather Stations






























Interactive Weather Map New forecast layout! Learn more

10-Day Weather Forecast

Advertisements
Track Severe Weather on mobile